createdAt,value
2022-12-23T00:00:57.411Z,99749.13
2022-12-23T00:03:26.568Z,99745.59
2022-12-23T00:05:55.274Z,99745.66
2022-12-23T00:08:24.013Z,99747.34
2022-12-23T00:10:53.334Z,99750.00
2022-12-23T00:13:39.175Z,99744.78
2022-12-23T00:16:11.111Z,99751.75
2022-12-23T00:18:40.016Z,99750.81
2022-12-23T00:21:11.065Z,99738.63
2022-12-23T00:23:40.083Z,99753.41
2022-12-23T00:26:08.819Z,99750.81
2022-12-23T00:28:36.535Z,99753.34
2022-12-23T00:31:06.460Z,99753.25
2022-12-23T00:33:37.469Z,99753.31
2022-12-23T00:36:13.188Z,99754.13
2022-12-23T00:38:58.787Z,99762.78
2022-12-23T00:41:43.872Z,99762.00
2022-12-23T00:44:11.678Z,99768.00
2022-12-23T00:46:39.594Z,99778.38
2022-12-23T00:49:26.576Z,99775.84
2022-12-23T00:51:54.300Z,99775.81
2022-12-23T00:54:22.067Z,99778.44
2022-12-23T00:56:49.834Z,99774.19
2022-12-23T00:59:17.623Z,99779.25
2022-12-23T01:02:08.656Z,99770.53
2022-12-23T01:04:55.417Z,99782.72
2022-12-23T01:07:24.149Z,99780.25
2022-12-23T01:09:51.882Z,99787.97
2022-12-23T01:12:19.679Z,99797.41
2022-12-23T01:14:47.484Z,99796.47
2022-12-23T01:17:15.716Z,99793.06
2022-12-23T01:19:44.909Z,99798.28
2022-12-23T01:22:12.888Z,99806.09
2022-12-23T01:24:40.665Z,99809.50
2022-12-23T01:27:08.405Z,99821.63
2022-12-23T01:29:36.106Z,99819.06
2022-12-23T01:32:03.917Z,99821.63
2022-12-23T01:34:36.740Z,99832.06
2022-12-23T01:37:06.494Z,99821.56
2022-12-23T01:39:34.344Z,99819.91
2022-12-23T01:42:19.634Z,99814.78
2022-12-23T01:44:56.367Z,99817.41
2022-12-23T01:47:39.838Z,99829.59
2022-12-23T01:50:12.576Z,99831.28
2022-12-23T01:52:46.706Z,99837.38
2022-12-23T01:55:17.981Z,99839.13
2022-12-23T01:57:47.659Z,99838.22
2022-12-23T02:00:34.302Z,99837.38
2022-12-23T02:03:31.361Z,99842.63
2022-12-23T02:06:20.915Z,99850.47
2022-12-23T02:09:07.393Z,99854.81
2022-12-23T02:11:54.472Z,99852.16
2022-12-23T02:14:49.452Z,99854.75
2022-12-23T02:17:21.719Z,99856.47
2022-12-23T02:20:09.963Z,99850.47
2022-12-23T02:22:58.945Z,99858.28
2022-12-23T02:25:52.919Z,99857.41
2022-12-23T02:28:46.136Z,99855.69
2022-12-23T02:31:25.059Z,99851.34
2022-12-23T02:34:02.296Z,99857.34
2022-12-23T02:36:39.273Z,99863.44
2022-12-23T02:39:11.771Z,99871.31
2022-12-23T02:41:45.839Z,99874.72
2022-12-23T02:44:24.074Z,99868.56
2022-12-23T02:46:59.265Z,99879.78
2022-12-23T02:49:31.262Z,99880.72
2022-12-23T02:52:02.625Z,99890.28
2022-12-23T02:54:32.849Z,99895.44
2022-12-23T02:57:04.674Z,99891.97
2022-12-23T02:59:39.036Z,99891.03
2022-12-23T03:02:08.623Z,99894.56
2022-12-23T03:04:38.229Z,99889.34
2022-12-23T03:07:08.091Z,99885.88
2022-12-23T03:09:47.980Z,99884.06
2022-12-23T03:12:24.674Z,99893.63
2022-12-23T03:15:08.239Z,99895.34
2022-12-23T03:17:55.611Z,99904.03
2022-12-23T03:20:28.651Z,99920.50
2022-12-23T03:23:02.723Z,99924.03
2022-12-23T03:25:34.799Z,99929.16
2022-12-23T03:28:09.592Z,99928.31
2022-12-23T03:30:39.807Z,99928.16
2022-12-23T03:33:14.587Z,99921.06
2022-12-23T03:35:46.888Z,99919.31
2022-12-23T03:38:18.353Z,99928.81
2022-12-23T03:40:50.427Z,99923.66
2022-12-23T03:43:23.287Z,99926.91
2022-12-23T03:45:57.046Z,99931.31
2022-12-23T03:48:33.777Z,99931.13
2022-12-23T03:51:05.746Z,99936.50
2022-12-23T03:53:37.886Z,99929.59
2022-12-23T03:56:10.484Z,99933.09
2022-12-23T03:58:42.645Z,99934.88
2022-12-23T04:01:20.154Z,99939.09
2022-12-23T04:03:56.049Z,99941.69
2022-12-23T04:06:27.562Z,99933.03
2022-12-23T04:08:57.982Z,99932.06
2022-12-23T04:11:26.141Z,99933.00
2022-12-23T04:13:54.634Z,99927.63
2022-12-23T04:16:22.946Z,99932.84
2022-12-23T04:18:52.117Z,99917.28
2022-12-23T04:21:19.809Z,99918.13
2022-12-23T04:23:47.605Z,99926.06
2022-12-23T04:26:15.319Z,99926.19
2022-12-23T04:28:43.073Z,99933.16
2022-12-23T04:31:10.897Z,99926.22
2022-12-23T04:33:38.715Z,99920.25
2022-12-23T04:36:08.467Z,99921.13
2022-12-23T04:38:36.176Z,99918.59
2022-12-23T04:41:04.240Z,99917.78
2022-12-23T04:43:32.024Z,99929.09
2022-12-23T04:45:59.745Z,99935.22
2022-12-23T04:48:27.442Z,99932.59
2022-12-23T04:50:55.181Z,99938.69
2022-12-23T04:53:24.257Z,99949.94
2022-12-23T04:55:52.810Z,99942.13
2022-12-23T04:58:22.031Z,99930.94
2022-12-23T05:00:49.907Z,99933.50
2022-12-23T05:03:18.031Z,99930.00
2022-12-23T05:05:45.954Z,99936.13
2022-12-23T05:08:13.674Z,99934.41
2022-12-23T05:10:42.789Z,99935.28
2022-12-23T05:13:10.533Z,99944.81
2022-12-23T05:15:38.427Z,99934.38
2022-12-23T05:18:06.236Z,99938.66
2022-12-23T05:20:33.989Z,99936.06
2022-12-23T05:23:01.891Z,99935.13
2022-12-23T05:25:29.692Z,99936.84
2022-12-23T05:27:58.811Z,99936.94
2022-12-23T05:30:26.810Z,99931.69
2022-12-23T05:32:55.145Z,99942.88
2022-12-23T05:35:22.978Z,99946.44
2022-12-23T05:37:50.932Z,99949.88
2022-12-23T05:40:23.460Z,99949.00
2022-12-23T05:42:52.480Z,99952.44
2022-12-23T05:45:21.757Z,99950.66
2022-12-23T05:47:49.534Z,99960.25
2022-12-23T05:50:17.387Z,99955.91
2022-12-23T05:52:45.059Z,99952.47
2022-12-23T05:55:12.831Z,99965.53
2022-12-23T05:57:40.564Z,99973.44
2022-12-23T06:00:10.500Z,99982.13
2022-12-23T06:02:44.382Z,99986.47
2022-12-23T06:05:15.491Z,99982.97
2022-12-23T06:07:43.472Z,99978.63
2022-12-23T06:10:12.103Z,99987.25
2022-12-23T06:12:39.889Z,99993.38
2022-12-23T06:15:09.587Z,99985.59
2022-12-23T06:17:37.573Z,99992.56
2022-12-23T06:20:08.066Z,99995.22
2022-12-23T06:22:36.117Z,100002.25
2022-12-23T06:25:03.916Z,99996.03
2022-12-23T06:27:31.665Z,99985.66
2022-12-23T06:29:59.431Z,99986.53
2022-12-23T06:32:28.665Z,99984.06
2022-12-23T06:34:58.201Z,99978.84
2022-12-23T06:37:27.286Z,99984.88
2022-12-23T06:39:55.210Z,99969.38
2022-12-23T06:42:22.893Z,99964.97
2022-12-23T06:44:50.589Z,99969.25
2022-12-23T06:47:18.349Z,99970.09
2022-12-23T06:49:46.043Z,99977.00
2022-12-23T06:52:13.808Z,99977.03
2022-12-23T06:54:42.910Z,99979.75
2022-12-23T06:57:10.622Z,99984.00
2022-12-23T06:59:38.288Z,99983.19
2022-12-23T07:02:06.566Z,99977.03
2022-12-23T07:04:34.438Z,99973.50
2022-12-23T07:07:02.210Z,99963.06
2022-12-23T07:09:29.960Z,99970.81
2022-12-23T07:11:59.071Z,99975.25
2022-12-23T07:14:26.800Z,99983.13
2022-12-23T07:16:54.616Z,99999.66
2022-12-23T07:19:22.368Z,100011.88
2022-12-23T07:21:50.038Z,100016.22
2022-12-23T07:24:18.021Z,100024.91
2022-12-23T07:26:45.735Z,100035.34
2022-12-23T07:29:15.052Z,100044.03
2022-12-23T07:31:42.965Z,100047.59
2022-12-23T07:34:10.731Z,100047.56
2022-12-23T07:36:38.584Z,100045.91
2022-12-23T07:39:06.826Z,100044.16
2022-12-23T07:41:34.510Z,100037.94
2022-12-23T07:44:07.354Z,100037.88
2022-12-23T07:46:36.816Z,100044.84
2022-12-23T07:49:04.877Z,100046.56
2022-12-23T07:51:32.886Z,100037.94
2022-12-23T07:54:00.694Z,100050.91
2022-12-23T07:56:28.632Z,100044.78
2022-12-23T07:58:56.446Z,100049.19
2022-12-23T08:01:24.313Z,100043.16
2022-12-23T08:03:53.476Z,100033.66
2022-12-23T08:06:21.271Z,100043.97
2022-12-23T08:08:48.975Z,100039.69
2022-12-23T08:11:17.857Z,100031.81
2022-12-23T08:13:48.186Z,100034.41
2022-12-23T08:16:16.276Z,100047.44
2022-12-23T08:18:43.953Z,100037.09
2022-12-23T08:21:15.720Z,100035.34
2022-12-23T08:23:43.957Z,100033.59
2022-12-23T08:26:13.157Z,100033.66
2022-12-23T08:28:42.390Z,100032.72
2022-12-23T08:31:11.718Z,100024.00
2022-12-23T08:33:40.992Z,100029.94
2022-12-23T08:36:10.539Z,100020.44
2022-12-23T08:38:39.804Z,100022.16
2022-12-23T08:41:10.483Z,100012.63
2022-12-23T08:43:38.317Z,100015.22
2022-12-23T08:46:06.876Z,100019.50
2022-12-23T08:48:35.662Z,100015.22
2022-12-23T08:51:05.210Z,100018.63
2022-12-23T08:53:32.968Z,100013.34
2022-12-23T08:56:06.509Z,100015.09
2022-12-23T08:58:38.418Z,100016.69
2022-12-23T09:01:07.345Z,100015.72
2022-12-23T09:03:35.544Z,100012.25
2022-12-23T09:06:05.767Z,100022.63
2022-12-23T09:08:33.706Z,100019.06
2022-12-23T09:11:03.875Z,100022.41
2022-12-23T09:13:35.700Z,100031.94
2022-12-23T09:16:04.153Z,100017.91
2022-12-23T09:18:32.075Z,100016.03
2022-12-23T09:21:01.152Z,100020.28
2022-12-23T09:23:29.551Z,100020.16
2022-12-23T09:25:57.693Z,100019.25
2022-12-23T09:28:27.077Z,100020.03
2022-12-23T09:30:54.833Z,100013.06
2022-12-23T09:33:22.730Z,100005.34
2022-12-23T09:35:50.431Z,99998.47
2022-12-23T09:38:18.203Z,100000.22
2022-12-23T09:40:46.340Z,99993.16
2022-12-23T09:43:27.162Z,99991.59
2022-12-23T09:46:07.662Z,99988.13
2022-12-23T09:48:41.145Z,99990.75
2022-12-23T09:51:11.799Z,99985.53
2022-12-23T09:53:50.652Z,99977.84
2022-12-23T09:56:25.995Z,99967.47
2022-12-23T09:59:04.687Z,99964.94
2022-12-23T10:01:44.802Z,99958.13
2022-12-23T10:04:37.624Z,99960.66
2022-12-23T10:07:29.069Z,99960.59
2022-12-23T10:09:59.017Z,99959.66
2022-12-23T10:12:40.006Z,99965.75
2022-12-23T10:15:20.278Z,99952.63
2022-12-23T10:17:52.403Z,99954.31
2022-12-23T10:20:32.661Z,99944.63
2022-12-23T10:23:01.281Z,99938.69
2022-12-23T10:25:34.014Z,99928.22
2022-12-23T10:28:01.762Z,99913.47
2022-12-23T10:30:57.329Z,99916.16
2022-12-23T10:33:24.238Z,99900.59
2022-12-23T10:36:02.114Z,99905.97
2022-12-23T10:38:41.708Z,99903.34
2022-12-23T10:41:20.783Z,99899.88
2022-12-23T10:44:09.818Z,99888.59
2022-12-23T10:46:50.397Z,99876.47
2022-12-23T10:49:31.105Z,99873.72
2022-12-23T10:52:02.875Z,99869.38
2022-12-23T10:54:34.801Z,99850.03
2022-12-23T10:57:04.597Z,99848.19
2022-12-23T10:59:34.182Z,99854.25
2022-12-23T11:02:10.974Z,99862.81
2022-12-23T11:04:43.025Z,99847.22
2022-12-23T11:10:05.380Z,99853.25
2022-12-23T11:12:42.455Z,99859.34
2022-12-23T11:15:27.408Z,99847.31
2022-12-23T11:18:05.552Z,99847.41
2022-12-23T11:20:37.405Z,99847.34
2022-12-23T11:23:07.543Z,99844.66
2022-12-23T11:25:38.370Z,99831.66
2022-12-23T11:28:13.106Z,99841.22
2022-12-23T11:30:57.313Z,99825.75
2022-12-23T11:33:31.256Z,99824.84
2022-12-23T11:36:08.862Z,99814.50
2022-12-23T11:38:48.168Z,99810.16
2022-12-23T11:41:21.390Z,99807.56
2022-12-23T11:43:57.869Z,99803.22
2022-12-23T11:46:29.262Z,99795.47
2022-12-23T11:49:13.952Z,99791.97
2022-12-23T11:51:43.903Z,99793.81
2022-12-23T11:54:19.419Z,99783.31
2022-12-23T11:56:52.533Z,99775.47
2022-12-23T11:59:29.809Z,99775.56
2022-12-23T12:01:59.834Z,99760.69
2022-12-23T12:04:31.318Z,99751.13
2022-12-23T12:07:01.642Z,99739.91
2022-12-23T12:09:32.187Z,99728.72
2022-12-23T12:12:05.608Z,99712.16
2022-12-23T12:14:37.764Z,99712.25
2022-12-23T12:17:15.326Z,99695.94
2022-12-23T12:19:51.529Z,99681.31
2022-12-23T12:22:33.241Z,99673.59
2022-12-23T12:25:12.861Z,99668.38
2022-12-23T12:27:42.764Z,99672.72
2022-12-23T12:30:18.263Z,99666.50
2022-12-23T12:33:04.113Z,99670.09
2022-12-23T12:35:39.118Z,99660.56
2022-12-23T12:38:24.127Z,99661.53
2022-12-23T12:40:56.787Z,99651.00
2022-12-23T12:43:28.776Z,99645.22
2022-12-23T12:46:08.846Z,99632.84
2022-12-23T12:48:45.924Z,99627.72
2022-12-23T12:51:22.232Z,99613.91
2022-12-23T12:54:06.002Z,99616.50
2022-12-23T12:56:41.379Z,99604.25
2022-12-23T12:59:17.327Z,99605.97
2022-12-23T13:01:54.122Z,99603.47
2022-12-23T13:04:44.671Z,99606.94
2022-12-23T13:07:21.837Z,99591.38
2022-12-23T13:10:01.616Z,99584.53
2022-12-23T13:12:46.017Z,99561.16
2022-12-23T13:15:22.143Z,99535.97
2022-12-23T13:18:12.958Z,99551.53
2022-12-23T13:20:46.940Z,99565.50
2022-12-23T13:23:42.295Z,99536.75
2022-12-23T13:26:19.394Z,99541.09
2022-12-23T13:28:57.670Z,99581.72
2022-12-23T13:31:37.017Z,99551.31
2022-12-23T13:34:13.831Z,99540.81
2022-12-23T13:36:52.941Z,99555.47
2022-12-23T13:39:33.787Z,99526.81
2022-12-23T13:42:06.471Z,99534.75
2022-12-23T13:44:35.934Z,99508.63
2022-12-23T13:47:13.188Z,99500.91
2022-12-23T13:49:56.921Z,99490.41
2022-12-23T13:52:37.587Z,99485.94
2022-12-23T13:55:19.375Z,99483.44
2022-12-23T13:57:57.147Z,99478.13
2022-12-23T14:00:28.653Z,99463.41
2022-12-23T14:03:19.010Z,99468.63
2022-12-23T14:05:50.496Z,99468.72
2022-12-23T14:08:33.876Z,99474.66
2022-12-23T14:11:04.988Z,99459.97
2022-12-23T14:13:40.944Z,99465.00
2022-12-23T14:16:32.509Z,99455.34
2022-12-23T14:19:34.147Z,99458.63
2022-12-23T14:22:12.904Z,99458.53
2022-12-23T14:25:05.835Z,99457.53
2022-12-23T14:27:47.660Z,99455.75
2022-12-23T14:30:22.507Z,99448.78
2022-12-23T14:32:52.794Z,99446.00
2022-12-23T14:35:29.142Z,99431.09
2022-12-23T14:38:30.761Z,99426.72
2022-12-23T14:41:18.741Z,99429.16
2022-12-23T14:43:59.217Z,99418.56
2022-12-23T14:47:02.549Z,99415.75
2022-12-23T14:49:41.538Z,99436.53
2022-12-23T14:52:48.894Z,99433.00
2022-12-23T14:55:43.608Z,99429.56
2022-12-23T14:58:33.401Z,99429.50
2022-12-23T15:01:05.060Z,99424.25
2022-12-23T15:03:35.965Z,99416.41
2022-12-23T15:06:08.118Z,99430.19
2022-12-23T15:08:40.137Z,99423.19
2022-12-23T15:11:10.367Z,99425.72
2022-12-23T15:13:38.594Z,99417.78
2022-12-23T15:16:06.941Z,99417.84
2022-12-23T15:18:34.677Z,99427.19
2022-12-23T15:21:04.251Z,99428.00
2022-12-23T15:23:33.882Z,99438.44
2022-12-23T15:26:02.780Z,99441.03
2022-12-23T15:28:37.810Z,99439.28
2022-12-23T15:31:07.128Z,99440.94
2022-12-23T15:34:02.181Z,99436.59
2022-12-23T15:36:30.924Z,99447.88
2022-12-23T15:39:02.618Z,99440.91
2022-12-23T15:41:30.431Z,99450.47
2022-12-23T15:44:01.503Z,99453.91
2022-12-23T15:46:30.693Z,99450.47
2022-12-23T15:48:58.832Z,99448.53
2022-12-23T15:54:27.948Z,99449.19
2022-12-23T15:56:58.959Z,99446.56
2022-12-23T15:59:30.271Z,99461.28
2022-12-23T16:01:58.115Z,99460.38
2022-12-23T16:04:29.218Z,99457.75
2022-12-23T16:06:57.117Z,99461.94
2022-12-23T16:09:44.138Z,99468.97
2022-12-23T16:12:22.885Z,99471.50
2022-12-23T16:14:55.236Z,99479.31
2022-12-23T16:17:25.273Z,99476.84
2022-12-23T16:19:55.909Z,99485.41
2022-12-23T16:22:29.023Z,99475.88
2022-12-23T16:25:10.158Z,99482.81
2022-12-23T16:27:40.985Z,99493.34
2022-12-23T16:30:15.469Z,99490.78
2022-12-23T16:32:48.549Z,99493.28
2022-12-23T16:35:28.970Z,99494.09
2022-12-23T16:38:00.326Z,99484.44
2022-12-23T16:40:29.360Z,99497.50
2022-12-23T16:42:58.268Z,99503.63
2022-12-23T16:45:25.994Z,99515.03
2022-12-23T16:47:57.566Z,99523.72
2022-12-23T16:50:25.818Z,99533.31
2022-12-23T16:52:53.504Z,99535.88
2022-12-23T16:55:21.636Z,99561.19
2022-12-23T16:57:50.783Z,99567.28
2022-12-23T17:00:20.210Z,99558.75
2022-12-23T17:02:48.997Z,99566.03
2022-12-23T17:05:18.370Z,99583.63
2022-12-23T17:07:46.897Z,99567.41
2022-12-23T17:10:16.252Z,99594.00
2022-12-23T17:12:45.155Z,99580.28
2022-12-23T17:15:18.309Z,99598.56
2022-12-23T17:17:46.538Z,99602.63
2022-12-23T17:20:14.529Z,99603.31
2022-12-23T17:22:45.012Z,99607.38
2022-12-23T17:25:14.452Z,99616.41
2022-12-23T17:27:43.074Z,99612.72
2022-12-23T17:30:18.238Z,99622.50
2022-12-23T17:32:49.617Z,99626.63
2022-12-23T17:35:17.740Z,99630.03
2022-12-23T17:37:45.413Z,99626.94
2022-12-23T17:40:14.387Z,99626.25
2022-12-23T17:42:42.589Z,99635.16
2022-12-23T17:45:25.369Z,99643.13
2022-12-23T17:47:53.718Z,99634.66
2022-12-23T17:50:22.134Z,99640.50
2022-12-23T17:52:52.227Z,99639.75
2022-12-23T17:55:21.801Z,99649.56
2022-12-23T17:57:49.657Z,99647.19
2022-12-23T18:00:28.009Z,99649.81
2022-12-23T18:02:59.435Z,99653.19
2022-12-23T18:05:29.786Z,99653.19
2022-12-23T18:07:59.163Z,99665.09
2022-12-23T18:10:29.287Z,99659.25
2022-12-23T18:12:59.133Z,99663.63
2022-12-23T18:15:33.597Z,99669.84
2022-12-23T18:18:01.731Z,99673.53
2022-12-23T18:20:29.517Z,99679.09
2022-12-23T18:22:59.130Z,99693.41
2022-12-23T18:25:31.209Z,99691.22
2022-12-23T18:27:58.921Z,99693.00
2022-12-23T18:30:28.379Z,99686.09
2022-12-23T18:32:56.175Z,99685.81
2022-12-23T18:35:28.253Z,99691.06
2022-12-23T18:37:56.971Z,99704.13
2022-12-23T18:40:30.881Z,99700.88
2022-12-23T18:43:00.395Z,99708.59
2022-12-23T18:45:34.785Z,99701.75
2022-12-23T18:48:03.413Z,99704.81
2022-12-23T18:50:31.973Z,99706.19
2022-12-23T18:52:59.922Z,99716.88
2022-12-23T18:55:31.273Z,99711.53
2022-12-23T18:58:00.557Z,99709.94
2022-12-23T19:00:33.470Z,99718.66
2022-12-23T19:03:01.356Z,99722.25
2022-12-23T19:05:32.701Z,99724.06
2022-12-23T19:08:01.377Z,99719.50
2022-12-23T19:10:32.693Z,99729.19
2022-12-23T19:13:01.095Z,99736.19
2022-12-23T19:15:29.299Z,99733.69
2022-12-23T19:17:58.524Z,99738.81
2022-12-23T19:20:26.256Z,99727.59
2022-12-23T19:22:54.147Z,99730.31
2022-12-23T19:25:21.877Z,99729.31
2022-12-23T19:27:50.069Z,99730.72
2022-12-23T19:30:19.229Z,99744.03
2022-12-23T19:32:48.493Z,99732.06
2022-12-23T19:35:17.602Z,99731.84
2022-12-23T19:37:45.430Z,99753.59
2022-12-23T19:40:13.292Z,99743.13
2022-12-23T19:42:41.591Z,99743.41
2022-12-23T19:45:11.529Z,99748.78
2022-12-23T19:47:39.767Z,99747.88
2022-12-23T19:50:09.294Z,99752.16
2022-12-23T19:52:38.572Z,99768.81
2022-12-23T19:55:07.019Z,99772.34
2022-12-23T19:57:34.774Z,99781.06
2022-12-23T20:00:02.812Z,99778.53
2022-12-23T20:02:39.861Z,99784.06
2022-12-23T20:05:09.479Z,99802.22
2022-12-23T20:07:38.672Z,99811.06
2022-12-23T20:10:07.864Z,99798.91
2022-12-23T20:12:35.663Z,99807.56
2022-12-23T20:15:03.383Z,99815.19
2022-12-23T20:17:31.110Z,99817.06
2022-12-23T20:19:58.862Z,99835.00
2022-12-23T20:22:26.576Z,99830.78
2022-12-23T20:24:55.704Z,99837.66
2022-12-23T20:27:27.873Z,99827.38
2022-12-23T20:29:56.159Z,99837.63
2022-12-23T20:32:23.870Z,99839.34
2022-12-23T20:34:51.616Z,99851.69
2022-12-23T20:37:19.309Z,99844.59
2022-12-23T20:39:47.129Z,99859.44
2022-12-23T20:42:16.524Z,99863.50
2022-12-23T20:44:44.531Z,99868.94
2022-12-23T20:47:12.381Z,99873.50
2022-12-23T20:49:40.083Z,99864.25
2022-12-23T20:52:10.836Z,99872.63
2022-12-23T20:54:38.615Z,99859.13
2022-12-23T20:57:06.305Z,99861.94
2022-12-23T20:59:35.519Z,99868.16
2022-12-23T21:02:03.250Z,99879.31
2022-12-23T21:04:31.009Z,99874.22
2022-12-23T21:06:59.200Z,99874.41
2022-12-23T21:09:26.942Z,99874.47
2022-12-23T21:11:55.093Z,99883.50
2022-12-23T21:14:22.958Z,99890.00
2022-12-23T21:16:52.095Z,99891.63
2022-12-23T21:19:21.939Z,99899.69
2022-12-23T21:21:50.790Z,99907.13
2022-12-23T21:24:19.687Z,99909.09
2022-12-23T21:26:55.667Z,99903.97
2022-12-23T21:29:24.262Z,99915.28
2022-12-23T21:31:54.829Z,99914.41
2022-12-23T21:34:23.035Z,99915.09
2022-12-23T21:36:50.891Z,99934.59
2022-12-23T21:39:18.762Z,99938.66
2022-12-23T21:41:46.611Z,99947.59
2022-12-23T21:44:15.483Z,99939.59
2022-12-23T21:46:43.334Z,99950.09
2022-12-23T21:49:12.908Z,99952.91
2022-12-23T21:51:41.695Z,99956.63
2022-12-23T21:54:11.157Z,99955.84
2022-12-23T21:56:40.608Z,99961.94
2022-12-23T21:59:11.529Z,99965.56
2022-12-23T22:01:39.707Z,99974.34
2022-12-23T22:04:07.868Z,99977.91
2022-12-23T22:06:39.571Z,99977.06
2022-12-23T22:09:09.173Z,99978.72
2022-12-23T22:11:38.487Z,99988.38
2022-12-23T22:14:08.472Z,99985.97
2022-12-23T22:16:36.880Z,99989.50
2022-12-23T22:19:06.083Z,99988.56
2022-12-23T22:21:36.466Z,99993.81
2022-12-23T22:24:06.325Z,100000.81
2022-12-23T22:26:34.684Z,100012.28
2022-12-23T22:29:05.166Z,100009.53
2022-12-23T22:31:37.277Z,100022.59
2022-12-23T22:34:06.000Z,100014.88
2022-12-23T22:36:34.479Z,100028.84
2022-12-23T22:39:03.487Z,100032.28
2022-12-23T22:41:33.105Z,100034.94
2022-12-23T22:44:01.241Z,100053.22
2022-12-23T22:46:29.387Z,100050.59
2022-12-23T22:48:58.804Z,100056.72
2022-12-23T22:51:28.318Z,100064.47
2022-12-23T22:53:57.250Z,100067.19
2022-12-23T22:56:27.441Z,100063.88
2022-12-23T22:58:57.418Z,100070.75
2022-12-23T23:01:27.770Z,100071.66
2022-12-23T23:03:57.872Z,100066.56
2022-12-23T23:06:26.991Z,100084.03
2022-12-23T23:08:56.048Z,100078.72
2022-12-23T23:11:24.801Z,100078.03
2022-12-23T23:13:52.999Z,100084.19
2022-12-23T23:16:22.948Z,100079.84
2022-12-23T23:18:50.729Z,100086.06
2022-12-23T23:21:18.619Z,100097.44
2022-12-23T23:23:46.840Z,100098.28
2022-12-23T23:26:14.932Z,100099.06
2022-12-23T23:28:43.798Z,100100.91
2022-12-23T23:34:01.121Z,100100.09
2022-12-23T23:36:28.879Z,100101.91
2022-12-23T23:38:56.634Z,100099.28
2022-12-23T23:41:24.476Z,100105.47
2022-12-23T23:43:52.518Z,100098.47
2022-12-23T23:46:20.603Z,100099.47
2022-12-23T23:48:48.542Z,100094.41
2022-12-23T23:51:17.699Z,100114.50
2022-12-23T23:53:45.501Z,100107.56
2022-12-23T23:56:13.330Z,100116.25
2022-12-23T23:58:41.241Z,100121.44
